createdAt,value
2022-11-29T00:01:04.859Z,35.03
2022-11-29T00:03:31.919Z,37.10
2022-11-29T00:06:08.509Z,35.90
2022-11-29T00:08:36.298Z,39.53
2022-11-29T00:11:07.719Z,37.22
2022-11-29T00:13:34.405Z,36.58
2022-11-29T00:16:05.356Z,39.85
2022-11-29T00:18:31.973Z,33.47
2022-11-29T00:20:58.893Z,39.33
2022-11-29T00:23:26.121Z,35.30
2022-11-29T00:25:52.750Z,31.23
2022-11-29T00:28:19.273Z,36.55
2022-11-29T00:30:45.856Z,36.97
2022-11-29T00:33:12.402Z,38.25
2022-11-29T00:35:38.957Z,35.00
2022-11-29T00:38:05.484Z,35.60
2022-11-29T00:40:32.065Z,36.63
2022-11-29T00:42:58.550Z,37.90
2022-11-29T00:45:25.033Z,37.08
2022-11-29T00:47:51.542Z,36.17
2022-11-29T00:50:18.053Z,36.65
2022-11-29T00:52:44.639Z,41.28
2022-11-29T00:55:11.114Z,36.22
2022-11-29T00:57:37.664Z,34.70
2022-11-29T01:00:04.849Z,35.90
2022-11-29T01:02:31.474Z,39.22
2022-11-29T01:04:58.064Z,41.08
2022-11-29T01:07:24.629Z,37.83
2022-11-29T01:09:51.279Z,37.92
2022-11-29T01:12:17.806Z,33.55
2022-11-29T01:14:44.839Z,33.47
2022-11-29T01:17:11.625Z,35.05
2022-11-29T01:19:38.941Z,38.40
2022-11-29T01:22:05.627Z,35.30
2022-11-29T01:24:32.194Z,34.67
2022-11-29T01:26:58.684Z,38.80
2022-11-29T01:29:25.294Z,37.92
2022-11-29T01:31:51.805Z,39.85
2022-11-29T01:34:18.393Z,36.20
2022-11-29T01:36:44.939Z,38.45
2022-11-29T01:39:11.469Z,43.17
2022-11-29T01:41:38.079Z,39.05
2022-11-29T01:44:13.430Z,39.15
2022-11-29T01:46:42.443Z,39.65
2022-11-29T01:49:15.302Z,41.55
2022-11-29T01:51:50.365Z,36.92
2022-11-29T01:54:17.604Z,38.28
2022-11-29T01:56:47.073Z,39.15
2022-11-29T01:59:18.843Z,37.47
2022-11-29T02:01:45.496Z,39.58
2022-11-29T02:04:12.271Z,38.35
2022-11-29T02:06:39.764Z,36.40
2022-11-29T02:09:18.905Z,39.08
2022-11-29T02:12:02.911Z,36.30
2022-11-29T02:14:47.382Z,37.40
2022-11-29T02:17:51.105Z,37.95
2022-11-29T02:20:42.548Z,36.60
2022-11-29T02:23:43.287Z,36.85
2022-11-29T02:26:38.702Z,39.05
2022-11-29T02:29:39.294Z,33.38
2022-11-29T02:32:49.541Z,32.47
2022-11-29T02:35:16.078Z,41.03
2022-11-29T02:38:00.175Z,40.25
2022-11-29T02:40:26.710Z,40.40
2022-11-29T02:43:14.821Z,40.50
2022-11-29T02:46:00.672Z,38.38
2022-11-29T02:48:42.477Z,43.67
2022-11-29T02:51:20.959Z,43.08
2022-11-29T02:53:57.948Z,39.78
2022-11-29T02:56:37.551Z,41.60
2022-11-29T02:59:20.622Z,39.17
2022-11-29T03:02:02.001Z,37.13
2022-11-29T03:04:38.029Z,36.38
2022-11-29T03:07:20.498Z,40.28
2022-11-29T03:10:21.593Z,41.05
2022-11-29T03:12:51.300Z,36.75
2022-11-29T03:15:33.010Z,36.80
2022-11-29T03:18:14.749Z,37.95
2022-11-29T03:20:50.138Z,37.53
2022-11-29T03:23:20.031Z,38.60
2022-11-29T03:25:56.656Z,40.45
2022-11-29T03:28:23.321Z,42.08
2022-11-29T03:31:19.012Z,41.33
2022-11-29T03:34:18.094Z,40.70
2022-11-29T03:36:44.586Z,44.30
2022-11-29T03:39:33.224Z,39.03
2022-11-29T03:42:03.379Z,42.97
2022-11-29T03:45:04.978Z,41.53
2022-11-29T03:47:40.089Z,40.78
2022-11-29T03:50:13.312Z,39.90
2022-11-29T03:52:42.566Z,45.20
2022-11-29T03:55:29.376Z,40.88
2022-11-29T03:58:21.736Z,43.85
2022-11-29T04:00:48.257Z,42.58
2022-11-29T04:03:45.594Z,42.92
2022-11-29T04:06:36.987Z,41.58
2022-11-29T04:09:21.519Z,43.25
2022-11-29T04:12:16.081Z,39.83
2022-11-29T04:15:19.482Z,45.72
2022-11-29T04:18:15.554Z,44.55
2022-11-29T04:21:26.686Z,45.95
2022-11-29T04:24:00.136Z,44.85
2022-11-29T04:26:44.916Z,44.55
2022-11-29T04:29:17.241Z,42.15
2022-11-29T04:32:15.067Z,43.20
2022-11-29T04:35:02.726Z,38.58
2022-11-29T04:38:04.522Z,44.10
2022-11-29T04:40:56.017Z,43.83
2022-11-29T04:43:40.775Z,41.47
2022-11-29T04:46:07.257Z,47.03
2022-11-29T04:48:52.658Z,43.40
2022-11-29T04:51:49.200Z,44.75
2022-11-29T04:54:25.812Z,45.67
2022-11-29T04:57:21.201Z,40.53
2022-11-29T04:59:57.488Z,45.28
2022-11-29T05:02:32.378Z,51.97
2022-11-29T05:05:04.753Z,44.45
2022-11-29T05:07:54.976Z,46.08
2022-11-29T05:10:31.964Z,46.10
2022-11-29T05:13:20.412Z,45.17
2022-11-29T05:16:15.237Z,45.75
2022-11-29T05:18:47.433Z,50.55
2022-11-29T05:21:25.054Z,46.20
2022-11-29T05:24:07.758Z,44.10
2022-11-29T05:26:47.909Z,50.78
2022-11-29T05:29:24.542Z,43.38
2022-11-29T05:32:25.570Z,52.10
2022-11-29T05:35:23.112Z,46.83
2022-11-29T05:37:53.028Z,46.70
2022-11-29T05:40:44.423Z,48.55
2022-11-29T05:43:36.150Z,49.55
2022-11-29T05:46:18.666Z,48.67
2022-11-29T05:49:22.958Z,49.17
2022-11-29T05:52:09.245Z,55.75
2022-11-29T05:54:56.456Z,46.95
2022-11-29T05:57:41.140Z,51.58
2022-11-29T06:00:11.743Z,47.88
2022-11-29T06:02:56.352Z,48.05
2022-11-29T06:05:49.093Z,53.67
2022-11-29T06:08:29.897Z,49.15
2022-11-29T06:14:08.048Z,51.67
2022-11-29T06:16:34.639Z,49.22
2022-11-29T06:19:32.326Z,53.45
2022-11-29T06:22:20.987Z,55.30
2022-11-29T06:25:16.841Z,53.95
2022-11-29T06:27:59.093Z,56.92
2022-11-29T06:31:02.203Z,52.60
2022-11-29T06:33:43.698Z,52.30
2022-11-29T06:36:14.748Z,54.20
2022-11-29T06:38:41.961Z,49.58
2022-11-29T06:41:14.543Z,50.42
2022-11-29T06:43:41.421Z,49.92
2022-11-29T06:46:32.824Z,48.53
2022-11-29T06:49:03.960Z,51.80
2022-11-29T06:51:40.654Z,57.17
2022-11-29T06:54:25.218Z,53.28
2022-11-29T06:57:06.283Z,50.65
2022-11-29T06:59:37.912Z,53.88
2022-11-29T07:02:22.629Z,55.65
2022-11-29T07:05:07.750Z,59.30
2022-11-29T07:07:35.197Z,53.00
2022-11-29T07:10:06.657Z,60.15
2022-11-29T07:12:36.346Z,56.83
2022-11-29T07:15:03.307Z,51.70
2022-11-29T07:17:48.813Z,56.10
2022-11-29T07:20:39.813Z,56.38
2022-11-29T07:23:50.913Z,56.25
2022-11-29T07:26:41.477Z,55.80
2022-11-29T07:29:19.718Z,54.60
2022-11-29T07:32:01.823Z,58.90
2022-11-29T07:34:54.826Z,52.08
2022-11-29T07:37:34.903Z,60.15
2022-11-29T07:40:18.199Z,51.78
2022-11-29T07:42:50.886Z,56.40
2022-11-29T07:45:36.109Z,67.25
2022-11-29T07:48:02.810Z,59.33
2022-11-29T07:50:30.693Z,63.45
2022-11-29T07:52:57.736Z,66.50
2022-11-29T07:55:25.962Z,54.47
2022-11-29T07:57:53.509Z,60.40
2022-11-29T08:00:20.981Z,63.10
2022-11-29T08:02:49.121Z,58.15
2022-11-29T08:05:16.055Z,57.78
2022-11-29T08:07:42.837Z,54.75
2022-11-29T08:10:15.616Z,54.13
2022-11-29T08:12:47.583Z,62.00
2022-11-29T08:15:14.697Z,56.85
2022-11-29T08:17:41.310Z,61.63
2022-11-29T08:20:09.347Z,51.75
2022-11-29T08:22:36.036Z,55.65
2022-11-29T08:25:03.044Z,56.15
2022-11-29T08:27:29.670Z,55.53
2022-11-29T08:29:56.190Z,57.97
2022-11-29T08:32:22.899Z,58.05
2022-11-29T08:34:49.530Z,60.58
2022-11-29T08:37:16.072Z,59.33
2022-11-29T08:39:43.108Z,64.97
2022-11-29T08:42:09.986Z,63.85
2022-11-29T08:44:36.782Z,52.85
2022-11-29T08:47:22.147Z,55.22
2022-11-29T08:50:04.167Z,57.50
2022-11-29T08:52:55.018Z,61.58
2022-11-29T08:57:51.183Z,58.00
2022-11-29T09:00:19.377Z,58.88
2022-11-29T09:02:45.950Z,60.90
2022-11-29T09:05:12.606Z,63.47
2022-11-29T09:07:39.382Z,61.20
2022-11-29T09:10:08.460Z,68.70
2022-11-29T09:12:36.104Z,73.30
2022-11-29T09:15:05.312Z,77.53
2022-11-29T09:17:31.872Z,74.78
2022-11-29T09:19:58.463Z,86.82
2022-11-29T09:22:25.020Z,85.22
2022-11-29T09:24:51.809Z,87.63
2022-11-29T09:27:18.385Z,87.97
2022-11-29T09:29:44.872Z,77.82
2022-11-29T09:32:11.529Z,82.82
2022-11-29T09:34:38.065Z,88.80
2022-11-29T09:37:05.250Z,90.18
2022-11-29T09:39:31.955Z,94.10
2022-11-29T09:42:27.274Z,86.18
2022-11-29T09:45:18.540Z,91.35
2022-11-29T09:48:31.025Z,85.63
2022-11-29T09:51:24.218Z,85.85
2022-11-29T09:54:13.714Z,85.70
2022-11-29T09:56:58.796Z,90.80
2022-11-29T09:59:28.104Z,99.97
2022-11-29T10:02:04.714Z,92.32
2022-11-29T10:04:40.169Z,94.22
2022-11-29T10:07:33.458Z,98.63
2022-11-29T10:10:07.115Z,90.47
2022-11-29T10:12:46.964Z,94.03
2022-11-29T10:15:22.113Z,95.93
2022-11-29T10:17:55.022Z,90.13
2022-11-29T10:20:27.429Z,91.32
2022-11-29T10:23:26.198Z,90.50
2022-11-29T10:25:55.745Z,93.43
2022-11-29T10:28:26.421Z,84.55
2022-11-29T10:33:21.853Z,89.25
2022-11-29T10:35:51.122Z,83.15
2022-11-29T10:38:33.011Z,79.95
2022-11-29T10:41:14.810Z,82.07
2022-11-29T10:43:43.036Z,91.22
2022-11-29T10:46:20.413Z,84.75
2022-11-29T10:48:47.198Z,90.40
2022-11-29T10:51:17.246Z,86.55
2022-11-29T10:53:45.539Z,87.68
2022-11-29T10:56:35.665Z,91.05
2022-11-29T10:59:06.302Z,85.93
2022-11-29T11:01:38.343Z,86.28
2022-11-29T11:04:09.905Z,90.85
2022-11-29T11:06:51.470Z,85.03
2022-11-29T11:09:27.870Z,91.10
2022-11-29T11:11:57.872Z,89.30
2022-11-29T11:14:28.845Z,89.72
2022-11-29T11:16:55.657Z,93.63
2022-11-29T11:19:27.846Z,84.57
2022-11-29T11:22:02.882Z,84.95
2022-11-29T11:24:33.490Z,86.18
2022-11-29T11:29:33.082Z,80.03
2022-11-29T11:32:00.699Z,90.15
2022-11-29T11:34:34.591Z,88.45
2022-11-29T11:37:16.481Z,85.72
2022-11-29T11:39:45.420Z,84.57
2022-11-29T11:42:37.691Z,96.82
2022-11-29T11:45:13.280Z,93.40
2022-11-29T11:47:45.308Z,86.70
2022-11-29T11:50:16.909Z,100.90
2022-11-29T11:52:50.737Z,87.95
2022-11-29T11:55:17.478Z,86.72
2022-11-29T11:57:44.278Z,80.60
2022-11-29T12:03:53.572Z,78.28
2022-11-29T12:06:28.947Z,85.55
2022-11-29T12:09:06.803Z,89.47
2022-11-29T12:12:00.394Z,81.45
2022-11-29T12:15:07.579Z,85.05
2022-11-29T12:17:49.273Z,85.53
2022-11-29T12:20:39.604Z,81.93
2022-11-29T12:23:09.335Z,85.70
2022-11-29T12:25:58.528Z,81.47
2022-11-29T12:28:40.504Z,86.63
2022-11-29T12:31:25.600Z,90.43
2022-11-29T12:34:22.231Z,91.30
2022-11-29T12:37:08.019Z,89.65
2022-11-29T12:39:46.250Z,85.68
2022-11-29T12:42:41.676Z,80.55
2022-11-29T12:45:18.318Z,90.55
2022-11-29T12:48:13.631Z,92.75
2022-11-29T12:51:04.876Z,83.55
2022-11-29T12:53:43.480Z,82.88
2022-11-29T12:56:34.674Z,87.43
2022-11-29T12:59:16.552Z,85.78
2022-11-29T13:01:58.287Z,83.53
2022-11-29T13:04:38.170Z,86.90
2022-11-29T13:07:12.988Z,83.50
2022-11-29T13:09:57.013Z,80.30
2022-11-29T13:12:39.732Z,78.72
2022-11-29T13:15:06.398Z,86.65
2022-11-29T13:17:41.273Z,82.15
2022-11-29T13:20:25.312Z,78.50
2022-11-29T13:22:55.050Z,81.07
2022-11-29T13:25:28.063Z,78.10
2022-11-29T13:27:58.715Z,82.18
2022-11-29T13:33:25.091Z,73.75
2022-11-29T13:36:00.598Z,71.80
2022-11-29T13:38:36.001Z,64.13
2022-11-29T13:41:28.279Z,64.80
2022-11-29T13:44:02.830Z,64.75
2022-11-29T13:46:41.224Z,64.20
2022-11-29T13:49:23.717Z,67.93
2022-11-29T13:52:04.931Z,66.65
2022-11-29T13:54:34.073Z,70.18
2022-11-29T13:57:10.364Z,69.60
2022-11-29T13:59:45.766Z,67.07
2022-11-29T14:02:32.025Z,62.47
2022-11-29T14:04:58.836Z,61.42
2022-11-29T14:07:25.508Z,68.47
2022-11-29T14:10:01.301Z,61.70
2022-11-29T14:12:35.867Z,62.90
2022-11-29T14:15:14.449Z,62.38
2022-11-29T14:17:53.500Z,63.97
2022-11-29T14:20:28.129Z,62.30
2022-11-29T14:23:07.662Z,61.13
2022-11-29T14:25:52.623Z,59.75
2022-11-29T14:28:22.459Z,58.90
2022-11-29T14:30:49.894Z,59.67
2022-11-29T14:33:47.509Z,58.13
2022-11-29T14:36:30.004Z,58.38
2022-11-29T14:39:30.536Z,50.45
2022-11-29T14:42:16.923Z,53.60
2022-11-29T14:44:56.013Z,51.33
2022-11-29T14:47:31.439Z,50.97
2022-11-29T14:50:01.151Z,55.50
2022-11-29T14:52:31.637Z,70.43
2022-11-29T14:55:29.716Z,52.20
2022-11-29T14:58:06.155Z,49.15
2022-11-29T15:00:37.754Z,54.85
2022-11-29T15:03:16.738Z,53.22
2022-11-29T15:05:48.757Z,55.05
2022-11-29T15:08:37.271Z,53.13
2022-11-29T15:11:27.497Z,50.05
2022-11-29T15:14:23.217Z,50.50
2022-11-29T15:16:58.511Z,49.95
2022-11-29T15:19:27.965Z,44.03
2022-11-29T15:22:21.110Z,48.55
2022-11-29T15:24:54.607Z,48.90
2022-11-29T15:27:22.077Z,46.05
2022-11-29T15:29:48.706Z,52.85
2022-11-29T15:32:26.398Z,46.20
2022-11-29T15:34:55.561Z,53.92
2022-11-29T15:37:26.226Z,51.75
2022-11-29T15:42:41.874Z,52.08
2022-11-29T15:45:36.843Z,50.67
2022-11-29T15:48:24.254Z,53.30
2022-11-29T15:51:16.014Z,55.78
2022-11-29T15:54:12.874Z,58.83
2022-11-29T15:56:51.953Z,51.17
2022-11-29T15:59:30.470Z,57.13
2022-11-29T16:02:00.317Z,51.55
2022-11-29T16:04:27.252Z,54.03
2022-11-29T16:06:55.439Z,51.15
2022-11-29T16:09:43.491Z,54.33
2022-11-29T16:12:14.158Z,55.63
2022-11-29T16:17:41.469Z,54.15
2022-11-29T16:20:13.769Z,52.17
2022-11-29T16:22:40.411Z,56.38
2022-11-29T16:25:16.157Z,61.47
2022-11-29T16:27:43.214Z,60.03
2022-11-29T16:30:24.726Z,57.65
2022-11-29T16:33:00.229Z,54.63
2022-11-29T16:35:29.384Z,53.08
2022-11-29T16:37:56.324Z,58.38
2022-11-29T16:40:27.178Z,55.95
2022-11-29T16:43:23.620Z,57.33
2022-11-29T16:46:30.276Z,56.58
2022-11-29T16:48:59.003Z,62.67
2022-11-29T16:51:39.898Z,64.88
2022-11-29T16:54:22.192Z,61.90
2022-11-29T16:56:50.435Z,62.25
2022-11-29T16:59:26.738Z,58.97
2022-11-29T17:01:55.099Z,59.05
2022-11-29T17:04:24.836Z,56.05
2022-11-29T17:06:56.132Z,54.42
2022-11-29T17:09:28.369Z,54.50
2022-11-29T17:11:56.175Z,51.53
2022-11-29T17:14:23.119Z,49.88
2022-11-29T17:16:49.814Z,49.42
2022-11-29T17:19:17.269Z,53.08
2022-11-29T17:21:44.190Z,51.53
2022-11-29T17:24:13.973Z,54.30
2022-11-29T17:26:41.545Z,48.13
2022-11-29T17:29:10.376Z,48.85
2022-11-29T17:31:37.062Z,51.63
2022-11-29T17:34:04.254Z,56.30
2022-11-29T17:36:31.357Z,57.60
2022-11-29T17:39:01.845Z,53.85
2022-11-29T17:41:29.437Z,60.78
2022-11-29T17:43:57.368Z,50.83
2022-11-29T17:46:27.097Z,54.17
2022-11-29T17:48:54.924Z,51.40
2022-11-29T17:54:11.107Z,54.13
2022-11-29T17:56:37.934Z,57.38
2022-11-29T17:59:05.334Z,56.10
2022-11-29T18:01:34.651Z,53.67
2022-11-29T18:04:03.137Z,58.33
2022-11-29T18:06:35.883Z,47.47
2022-11-29T18:09:04.325Z,48.60
2022-11-29T18:11:41.664Z,55.35
2022-11-29T18:14:15.411Z,55.05
2022-11-29T18:16:42.391Z,51.63
2022-11-29T18:19:12.771Z,49.88
2022-11-29T18:21:39.672Z,48.72
2022-11-29T18:24:07.148Z,46.60
2022-11-29T18:26:35.189Z,42.55
2022-11-29T18:29:02.157Z,45.22
2022-11-29T18:31:31.463Z,47.80
2022-11-29T18:34:00.352Z,45.38
2022-11-29T18:36:29.981Z,45.70
2022-11-29T18:39:01.615Z,43.90
2022-11-29T18:41:29.920Z,44.53
2022-11-29T18:44:07.200Z,43.33
2022-11-29T18:46:36.554Z,50.60
2022-11-29T18:49:05.909Z,45.70
2022-11-29T18:51:33.527Z,44.38
2022-11-29T18:54:01.032Z,47.03
2022-11-29T18:56:30.141Z,43.33
2022-11-29T18:59:02.037Z,46.22
2022-11-29T19:01:30.761Z,45.17
2022-11-29T19:03:59.447Z,46.35
2022-11-29T19:06:38.602Z,43.75
2022-11-29T19:09:07.957Z,43.42
2022-11-29T19:11:34.954Z,45.80
2022-11-29T19:14:04.797Z,44.65
2022-11-29T19:16:33.224Z,45.10
2022-11-29T19:19:01.110Z,42.85
2022-11-29T19:21:29.904Z,49.20
2022-11-29T19:23:58.833Z,48.90
2022-11-29T19:26:27.193Z,51.65
2022-11-29T19:28:54.096Z,47.75
2022-11-29T19:31:24.809Z,52.38
2022-11-29T19:33:52.635Z,53.55
2022-11-29T19:36:23.516Z,48.58
2022-11-29T19:38:53.915Z,49.20
2022-11-29T19:41:26.640Z,54.03
2022-11-29T19:43:54.051Z,58.45
2022-11-29T19:46:23.464Z,54.28
2022-11-29T19:48:53.159Z,58.90
2022-11-29T19:51:21.082Z,57.47
2022-11-29T19:53:47.695Z,54.88
2022-11-29T19:56:17.127Z,53.38
2022-11-29T19:58:44.483Z,51.97
2022-11-29T20:01:18.713Z,54.47
2022-11-29T20:03:45.623Z,51.70
2022-11-29T20:06:13.725Z,54.65
2022-11-29T20:08:41.111Z,60.67
2022-11-29T20:11:15.778Z,54.85
2022-11-29T20:13:44.009Z,53.67
2022-11-29T20:16:17.142Z,53.72
2022-11-29T20:18:50.417Z,57.67
2022-11-29T20:21:18.699Z,57.13
2022-11-29T20:23:45.223Z,59.33
2022-11-29T20:26:17.734Z,55.35
2022-11-29T20:28:45.070Z,53.67
2022-11-29T20:31:15.387Z,60.67
2022-11-29T20:33:43.427Z,59.00
2022-11-29T20:36:29.133Z,59.33
2022-11-29T20:39:05.757Z,63.20
2022-11-29T20:41:48.327Z,57.92
2022-11-29T20:44:20.467Z,59.50
2022-11-29T20:46:47.264Z,60.50
2022-11-29T20:49:15.167Z,56.55
2022-11-29T20:51:51.478Z,52.88
2022-11-29T20:54:19.427Z,52.50
2022-11-29T20:56:45.965Z,56.75
2022-11-29T20:59:12.497Z,58.28
2022-11-29T21:01:39.193Z,54.75
2022-11-29T21:04:05.826Z,53.40
2022-11-29T21:06:36.117Z,56.08
2022-11-29T21:09:02.891Z,53.85
2022-11-29T21:11:29.818Z,51.55
2022-11-29T21:13:57.145Z,56.80
2022-11-29T21:16:28.393Z,60.10
2022-11-29T21:18:58.440Z,49.75
2022-11-29T21:21:33.330Z,58.47
2022-11-29T21:24:06.743Z,54.30
2022-11-29T21:26:41.981Z,51.58
2022-11-29T21:29:17.316Z,124.47
2022-11-29T21:31:45.613Z,57.25
2022-11-29T21:34:12.367Z,57.05
2022-11-29T21:36:39.549Z,60.60
2022-11-29T21:39:07.784Z,58.53
2022-11-29T21:41:34.474Z,65.50
2022-11-29T21:44:08.726Z,67.78
2022-11-29T21:46:35.882Z,59.00
2022-11-29T21:49:02.612Z,63.95
2022-11-29T21:51:29.212Z,68.57
2022-11-29T21:53:55.916Z,65.53
2022-11-29T21:56:22.543Z,63.47
2022-11-29T21:58:49.091Z,60.20
2022-11-29T22:01:18.488Z,63.67
2022-11-29T22:03:45.796Z,57.05
2022-11-29T22:06:14.998Z,62.03
2022-11-29T22:08:42.263Z,59.30
2022-11-29T22:11:11.787Z,60.13
2022-11-29T22:13:59.910Z,65.60
2022-11-29T22:16:26.870Z,60.05
2022-11-29T22:18:53.704Z,56.67
2022-11-29T22:21:20.826Z,50.58
2022-11-29T22:23:48.152Z,54.42
2022-11-29T22:26:14.660Z,62.78
2022-11-29T22:28:41.170Z,57.28
2022-11-29T22:31:12.551Z,57.40
2022-11-29T22:33:39.714Z,57.58
2022-11-29T22:36:08.968Z,51.42
2022-11-29T22:38:35.817Z,59.22
2022-11-29T22:41:04.722Z,50.83
2022-11-29T22:43:32.127Z,47.22
2022-11-29T22:46:05.694Z,48.15
2022-11-29T22:48:38.182Z,51.10
2022-11-29T22:51:12.795Z,57.00
2022-11-29T22:53:41.577Z,55.10
2022-11-29T22:56:11.039Z,55.55
2022-11-29T22:58:38.117Z,51.30
2022-11-29T23:01:14.819Z,50.67
2022-11-29T23:03:48.177Z,50.45
2022-11-29T23:06:17.858Z,51.40
2022-11-29T23:08:45.836Z,50.92
2022-11-29T23:11:15.794Z,52.45
2022-11-29T23:13:43.871Z,53.47
2022-11-29T23:16:13.284Z,50.13
2022-11-29T23:18:42.238Z,50.80
2022-11-29T23:21:11.885Z,56.95
2022-11-29T23:23:38.725Z,46.30
2022-11-29T23:26:06.801Z,53.25
2022-11-29T23:28:34.711Z,52.90
2022-11-29T23:31:01.946Z,55.42
2022-11-29T23:33:28.642Z,51.47
2022-11-29T23:36:03.037Z,55.75
2022-11-29T23:38:30.131Z,54.42
2022-11-29T23:40:56.991Z,51.80
2022-11-29T23:43:23.673Z,49.53
2022-11-29T23:45:50.685Z,53.70
2022-11-29T23:48:17.492Z,53.28
2022-11-29T23:50:44.010Z,48.33
2022-11-29T23:53:15.318Z,45.88
2022-11-29T23:55:42.327Z,49.22
2022-11-29T23:58:10.183Z,48.85
